Dunn, Louisiana
Current Conditions -  °F | °C
As of 2:15 PM on Sunday 25 Jan 2015 (Local Time) from KBQP Reporting Station
Clear Clear  
Wind Chill: 67°   Ceiling: Unl
Heat Index: 67°   Visibility: 10mi
Dew Point: 36°   Wind: 18mph
Humidity: 32%   Direction: 290°WNW
Pressure: 29.8"   Gusts: 26mph
Location:  32.4445°N, 91.5289°W
Report Text: KBQP 252015Z AUTO 29016G23KT 10SM CLR 19/02 A2980 RMK AO2 T01920022
Loading
Personal Weather Stations






























Interactive Weather Map New forecast layout! Learn more

10-Day Weather Forecast

Advertisements
Track Severe Weather on mobile